Time;durP1;ratioP1;P1;durP2;ratioP2;P2;SDS_P1;SDS_P2;PMS_P1;PMS_P2;Temp;Humidity;BMP_temperature;BMP_pressure;BME280_temperature;BME280_humidity;BME280_pressure;Samples;Min_cycle;Max_cycle;Signal;HPM_P1;HPM_P2
2022/11/22 00:00:14;;;;;;;83.18;8.85;;;;;;;;;;5014198;28;20029;-50
2022/11/22 00:02:41;;;;;;;144.20;10.85;;;;;;;;;;5014264;28;20030;-50
2022/11/22 00:05:08;;;;;;;167.25;13.65;;;;;;;;;;5015650;28;20026;-49
2022/11/22 00:07:36;;;;;;;113.93;10.20;;;;;;;;;;5015045;28;20503;-50
2022/11/22 00:10:04;;;;;;;95.43;9.32;;;;;;;;;;5015049;28;20033;-52
2022/11/22 00:12:31;;;;;;;105.53;10.65;;;;;;;;;;5015304;28;20391;-53
2022/11/22 00:14:58;;;;;;;89.07;9.02;;;;;;;;;;5014939;28;20056;-47
2022/11/22 00:17:25;;;;;;;95.45;9.43;;;;;;;;;;5014790;28;20045;-50
2022/11/22 00:19:52;;;;;;;89.25;9.93;;;;;;;;;;5015321;28;20053;-53
2022/11/22 00:22:19;;;;;;;87.60;8.80;;;;;;;;;;5014844;28;20026;-49
2022/11/22 00:24:46;;;;;;;89.45;10.52;;;;;;;;;;5013854;28;20026;-51
2022/11/22 00:27:13;;;;;;;124.93;11.70;;;;;;;;;;5014095;28;20032;-52
2022/11/22 00:29:40;;;;;;;123.82;11.88;;;;;;;;;;5014020;28;20040;-49
2022/11/22 00:32:07;;;;;;;133.88;12.45;;;;;;;;;;5013675;28;20117;-54
2022/11/22 00:34:34;;;;;;;119.18;12.27;;;;;;;;;;5014315;28;20026;-54
2022/11/22 00:37:01;;;;;;;111.50;10.82;;;;;;;;;;5012696;28;20735;-53
2022/11/22 00:39:28;;;;;;;98.80;11.55;;;;;;;;;;5012891;28;20030;-51
2022/11/22 00:41:55;;;;;;;97.28;11.70;;;;;;;;;;5013052;28;20025;-51
2022/11/22 00:44:22;;;;;;;113.63;12.85;;;;;;;;;;5013492;28;20084;-52
2022/11/22 00:46:49;;;;;;;113.38;14.57;;;;;;;;;;5013186;28;20040;-48
2022/11/22 00:49:16;;;;;;;127.15;15.40;;;;;;;;;;5014423;28;20040;-50
2022/11/22 00:51:43;;;;;;;117.60;14.00;;;;;;;;;;5014163;28;20568;-55
2022/11/22 00:54:10;;;;;;;116.57;14.95;;;;;;;;;;5011645;28;20025;-53
2022/11/22 00:56:37;;;;;;;151.88;16.58;;;;;;;;;;5012636;28;20398;-56
2022/11/22 00:59:04;;;;;;;132.10;14.77;;;;;;;;;;5012398;28;20500;-53
2022/11/22 01:01:31;;;;;;;119.78;14.85;;;;;;;;;;5011009;28;20392;-56
2022/11/22 01:03:58;;;;;;;111.28;14.50;;;;;;;;;;5011963;28;20076;-57
2022/11/22 01:06:25;;;;;;;97.32;11.50;;;;;;;;;;5018986;28;20037;-54
2022/11/22 01:08:52;;;;;;;104.38;12.63;;;;;;;;;;5021003;28;20088;-52
2022/11/22 01:11:19;;;;;;;91.80;11.40;;;;;;;;;;5013156;28;20022;-55
2022/11/22 01:13:46;;;;;;;98.38;10.75;;;;;;;;;;5020193;28;20071;-58
2022/11/22 01:16:13;;;;;;;96.40;10.52;;;;;;;;;;5031441;28;20037;-58
2022/11/22 01:18:40;;;;;;;88.22;11.02;;;;;;;;;;5032046;28;20128;-58
2022/11/22 01:21:08;;;;;;;90.05;11.20;;;;;;;;;;5027457;28;20025;-58
2022/11/22 01:23:35;;;;;;;78.68;11.45;;;;;;;;;;5027884;28;20072;-56
2022/11/22 01:26:02;;;;;;;78.47;10.52;;;;;;;;;;5021009;28;20048;-55
2022/11/22 01:28:29;;;;;;;56.25;10.48;;;;;;;;;;5033556;28;20083;-58
2022/11/22 01:30:56;;;;;;;54.13;10.25;;;;;;;;;;5032802;28;20030;-57
2022/11/22 01:33:23;;;;;;;61.05;10.02;;;;;;;;;;5033485;28;20025;-58
2022/11/22 01:35:50;;;;;;;61.35;10.60;;;;;;;;;;5033274;28;20056;-58
2022/11/22 01:38:17;;;;;;;44.15;9.82;;;;;;;;;;5032792;28;20438;-58
2022/11/22 01:40:44;;;;;;;63.70;10.75;;;;;;;;;;5026254;28;20495;-58
2022/11/22 01:43:16;;;;;;;77.90;10.80;;;;;;;;;;5033242;28;20026;-57
2022/11/22 01:45:45;;;;;;;70.43;11.77;;;;;;;;;;5032861;28;20065;-56
2022/11/22 01:48:12;;;;;;;76.18;12.05;;;;;;;;;;5028402;28;20056;-57
2022/11/22 01:50:41;;;;;;;76.72;12.18;;;;;;;;;;5017828;28;20026;-58
2022/11/22 01:53:13;;;;;;;75.72;11.85;;;;;;;;;;5012814;28;20030;-58
2022/11/22 01:55:41;;;;;;;77.43;11.55;;;;;;;;;;5013428;28;20053;-57
2022/11/22 01:58:09;;;;;;;77.60;11.90;;;;;;;;;;5013052;28;20434;-58
2022/11/22 02:00:37;;;;;;;66.90;11.02;;;;;;;;;;5012629;28;20086;-57
2022/11/22 02:03:07;;;;;;;80.70;11.38;;;;;;;;;;5013179;28;20491;-56
2022/11/22 02:05:34;;;;;;;69.78;11.45;;;;;;;;;;5012151;28;20034;-56
2022/11/22 02:08:10;;;;;;;65.13;11.68;;;;;;;;;;5012507;28;20057;-57
2022/11/22 02:10:40;;;;;;;71.78;11.65;;;;;;;;;;5013497;28;20033;-57
2022/11/22 02:13:08;;;;;;;60.20;10.25;;;;;;;;;;5007372;28;20506;-56
2022/11/22 02:15:35;;;;;;;60.25;10.70;;;;;;;;;;5030484;28;20039;-55
2022/11/22 02:18:02;;;;;;;53.67;11.05;;;;;;;;;;5033328;28;20022;-56
2022/11/22 02:20:29;;;;;;;51.88;10.52;;;;;;;;;;5020119;28;20026;-51
2022/11/22 02:23:15;;;;;;;52.70;9.75;;;;;;;;;;5010032;28;20041;-56
2022/11/22 02:25:42;;;;;;;52.38;10.30;;;;;;;;;;5010964;28;20025;-55
2022/11/22 02:28:10;;;;;;;47.55;9.02;;;;;;;;;;5011363;28;20030;-52
2022/11/22 02:30:37;;;;;;;37.92;9.35;;;;;;;;;;5010148;28;20120;-50
2022/11/22 02:33:04;;;;;;;38.03;9.57;;;;;;;;;;5012793;28;20022;-53
2022/11/22 02:35:31;;;;;;;44.55;9.57;;;;;;;;;;5012510;28;20201;-51
2022/11/22 02:38:00;;;;;;;43.92;9.38;;;;;;;;;;5012463;28;20080;-51
2022/11/22 02:40:27;;;;;;;39.15;9.13;;;;;;;;;;5012195;28;20037;-52
2022/11/22 02:42:56;;;;;;;34.35;8.40;;;;;;;;;;5011898;28;20487;-52
2022/11/22 02:45:23;;;;;;;31.17;8.68;;;;;;;;;;5012099;28;20033;-52
2022/11/22 02:47:50;;;;;;;33.42;8.98;;;;;;;;;;5012193;28;20034;-53
2022/11/22 02:50:17;;;;;;;32.35;8.57;;;;;;;;;;5012385;28;20049;-51
2022/11/22 02:52:44;;;;;;;32.58;8.80;;;;;;;;;;5012621;28;20052;-52
2022/11/22 02:55:11;;;;;;;33.20;7.88;;;;;;;;;;5012867;28;20026;-54
2022/11/22 02:57:38;;;;;;;29.90;7.93;;;;;;;;;;5012816;28;20124;-54
2022/11/22 03:00:05;;;;;;;26.80;8.00;;;;;;;;;;5012951;28;20061;-49
2022/11/22 03:02:32;;;;;;;26.65;7.72;;;;;;;;;;5012777;28;20038;-51
2022/11/22 03:04:59;;;;;;;35.25;8.80;;;;;;;;;;5012968;28;20492;-51
2022/11/22 03:07:26;;;;;;;33.05;8.10;;;;;;;;;;5012456;28;21171;-52
2022/11/22 03:09:54;;;;;;;30.88;8.00;;;;;;;;;;5012754;28;20060;-52
2022/11/22 03:12:21;;;;;;;32.33;8.40;;;;;;;;;;5012869;28;20030;-50
2022/11/22 03:14:48;;;;;;;26.23;7.25;;;;;;;;;;5012800;28;20108;-53
2022/11/22 03:17:15;;;;;;;29.05;7.88;;;;;;;;;;5016244;28;20034;-50
2022/11/22 03:19:42;;;;;;;22.83;7.55;;;;;;;;;;5016620;28;20030;-50
2022/11/22 03:22:09;;;;;;;23.60;7.43;;;;;;;;;;5016780;28;20018;-52
2022/11/22 03:24:36;;;;;;;26.70;8.32;;;;;;;;;;5016771;28;20018;-50
2022/11/22 03:27:03;;;;;;;24.58;7.35;;;;;;;;;;5016642;28;20033;-50
2022/11/22 03:29:30;;;;;;;21.88;7.05;;;;;;;;;;5016737;28;20026;-51
2022/11/22 03:31:57;;;;;;;21.30;7.28;;;;;;;;;;5016642;28;20048;-52
2022/11/22 03:34:24;;;;;;;24.30;7.30;;;;;;;;;;5015202;28;20032;-51
2022/11/22 03:36:51;;;;;;;26.67;7.60;;;;;;;;;;5016421;28;20479;-51
2022/11/22 03:39:18;;;;;;;21.15;6.75;;;;;;;;;;5016346;28;20091;-56
2022/11/22 03:41:45;;;;;;;22.45;7.05;;;;;;;;;;5016481;28;20080;-51
2022/11/22 03:44:12;;;;;;;24.35;7.15;;;;;;;;;;5016412;28;20029;-54
2022/11/22 03:46:38;;;;;;;23.08;7.07;;;;;;;;;;5016395;28;20434;-48
2022/11/22 03:49:05;;;;;;;22.52;7.53;;;;;;;;;;5016328;28;20101;-50
2022/11/22 03:51:32;;;;;;;20.10;7.35;;;;;;;;;;5014893;28;20032;-52
2022/11/22 03:53:59;;;;;;;17.90;6.78;;;;;;;;;;5016214;28;20022;-50
2022/11/22 03:56:26;;;;;;;19.73;7.25;;;;;;;;;;5015964;28;20038;-49
2022/11/22 03:58:53;;;;;;;17.85;7.15;;;;;;;;;;5016161;28;20017;-53
2022/11/22 04:01:20;;;;;;;22.38;7.00;;;;;;;;;;5016396;28;20380;-52
2022/11/22 04:03:47;;;;;;;19.70;6.90;;;;;;;;;;5016104;28;20044;-52
2022/11/22 04:06:14;;;;;;;19.67;6.43;;;;;;;;;;5015895;28;20034;-53
2022/11/22 04:08:41;;;;;;;20.63;6.65;;;;;;;;;;5015776;28;20406;-53
2022/11/22 04:11:08;;;;;;;17.17;6.38;;;;;;;;;;5014576;28;20396;-52
2022/11/22 04:16:20;;;;;;;17.80;6.57;;;;;;;;;;5015648;28;20503;-54
2022/11/22 04:18:47;;;;;;;16.38;7.07;;;;;;;;;;5015858;28;20014;-51
2022/11/22 04:26:45;;;;;;;20.13;6.78;;;;;;;;;;5015096;28;20080;-50
2022/11/22 04:29:12;;;;;;;15.10;6.47;;;;;;;;;;5014850;28;20018;-52
2022/11/22 04:34:24;;;;;;;16.88;6.78;;;;;;;;;;5015382;28;20032;-52
2022/11/22 04:36:51;;;;;;;16.75;6.47;;;;;;;;;;5015298;28;20373;-50
2022/11/22 04:39:18;;;;;;;17.35;6.20;;;;;;;;;;5015531;28;20032;-50
2022/11/22 04:41:45;;;;;;;15.73;6.57;;;;;;;;;;5015261;28;20037;-52
2022/11/22 04:46:57;;;;;;;16.35;6.10;;;;;;;;;;5015091;28;20527;-52
2022/11/22 04:49:24;;;;;;;15.90;5.93;;;;;;;;;;5015167;28;20022;-52
2022/11/22 04:54:36;;;;;;;16.85;5.93;;;;;;;;;;5015327;28;20446;-50
2022/11/22 04:57:03;;;;;;;17.00;6.05;;;;;;;;;;5014941;28;20476;-53
2022/11/22 04:59:30;;;;;;;14.52;6.22;;;;;;;;;;5014975;28;20443;-53
2022/11/22 05:01:57;;;;;;;13.65;5.60;;;;;;;;;;5014996;28;20407;-52
2022/11/22 05:04:24;;;;;;;15.93;6.05;;;;;;;;;;5014937;28;20018;-51
2022/11/22 05:06:51;;;;;;;14.77;5.68;;;;;;;;;;5014683;28;20090;-49
2022/11/22 05:09:18;;;;;;;11.30;5.47;;;;;;;;;;5014125;28;20503;-51
2022/11/22 05:11:45;;;;;;;13.45;5.50;;;;;;;;;;5014642;28;20022;-54
2022/11/22 05:14:12;;;;;;;14.55;5.80;;;;;;;;;;5014655;28;20072;-51
2022/11/22 05:16:39;;;;;;;13.23;6.30;;;;;;;;;;5014455;28;20046;-54
2022/11/22 05:19:06;;;;;;;14.23;5.57;;;;;;;;;;5014540;28;20097;-49
2022/11/22 05:21:37;;;;;;;11.50;5.40;;;;;;;;;;5014610;28;20476;-52
2022/11/22 05:24:04;;;;;;;15.18;5.72;;;;;;;;;;5014448;28;20141;-49
2022/11/22 05:26:32;;;;;;;15.13;5.75;;;;;;;;;;5014367;28;20029;-52
2022/11/22 05:29:02;;;;;;;12.57;5.32;;;;;;;;;;5014420;28;20044;-51
2022/11/22 05:31:29;;;;;;;13.90;5.40;;;;;;;;;;5014475;28;20018;-50
2022/11/22 05:33:57;;;;;;;13.07;5.60;;;;;;;;;;5014417;28;20076;-54
2022/11/22 05:36:24;;;;;;;13.88;5.95;;;;;;;;;;5014210;28;20034;-52
2022/11/22 05:38:51;;;;;;;12.07;4.82;;;;;;;;;;5013939;28;20038;-52
2022/11/22 05:41:19;;;;;;;12.57;5.65;;;;;;;;;;5014215;28;20018;-52
2022/11/22 05:43:46;;;;;;;10.60;5.15;;;;;;;;;;5013995;28;20443;-51
2022/11/22 05:46:17;;;;;;;11.95;5.35;;;;;;;;;;5014152;28;20030;-53
2022/11/22 05:48:45;;;;;;;12.38;5.13;;;;;;;;;;5014090;28;20025;-52
2022/11/22 05:51:16;;;;;;;11.68;4.82;;;;;;;;;;5014042;28;20480;-50
2022/11/22 05:53:44;;;;;;;13.13;5.05;;;;;;;;;;5014095;28;20164;-51
2022/11/22 05:56:12;;;;;;;15.20;5.50;;;;;;;;;;5013794;28;20030;-51
2022/11/22 05:58:40;;;;;;;12.15;5.18;;;;;;;;;;5013706;28;20040;-51
2022/11/22 06:01:16;;;;;;;13.23;5.43;;;;;;;;;;5015184;28;20041;-50
2022/11/22 06:03:43;;;;;;;13.32;4.75;;;;;;;;;;5033614;28;20025;-49
2022/11/22 06:06:11;;;;;;;15.55;5.22;;;;;;;;;;5033425;28;20396;-48
2022/11/22 06:08:43;;;;;;;12.05;4.88;;;;;;;;;;5033174;28;20132;-50
2022/11/22 06:11:14;;;;;;;13.85;4.63;;;;;;;;;;5033284;28;20029;-54
2022/11/22 06:13:43;;;;;;;10.73;5.10;;;;;;;;;;5033414;28;20025;-50
2022/11/22 06:16:10;;;;;;;12.27;4.63;;;;;;;;;;5033443;28;20102;-50
2022/11/22 06:18:37;;;;;;;10.95;4.55;;;;;;;;;;5033348;28;20054;-52
2022/11/22 06:21:06;;;;;;;11.50;4.72;;;;;;;;;;5033032;28;20076;-51
2022/11/22 06:23:33;;;;;;;11.40;4.40;;;;;;;;;;5033211;28;20025;-53
2022/11/22 06:26:01;;;;;;;13.63;4.80;;;;;;;;;;5033060;28;20027;-48
2022/11/22 06:28:32;;;;;;;8.57;4.47;;;;;;;;;;5033145;28;20024;-53
2022/11/22 06:31:06;;;;;;;11.90;4.20;;;;;;;;;;5033140;28;20491;-50
2022/11/22 06:33:34;;;;;;;11.25;4.68;;;;;;;;;;5033084;28;20018;-54
2022/11/22 06:36:04;;;;;;;8.15;4.30;;;;;;;;;;5032636;28;20033;-55
2022/11/22 06:38:31;;;;;;;10.32;4.40;;;;;;;;;;5033000;28;20021;-52
2022/11/22 06:40:59;;;;;;;8.57;4.32;;;;;;;;;;5032921;28;20422;-53
2022/11/22 06:43:27;;;;;;;11.25;4.60;;;;;;;;;;5032898;28;20029;-53
2022/11/22 06:45:58;;;;;;;11.50;4.70;;;;;;;;;;5032759;28;20104;-53
2022/11/22 06:48:26;;;;;;;10.15;4.15;;;;;;;;;;5032744;28;20379;-51
2022/11/22 06:50:58;;;;;;;11.93;4.55;;;;;;;;;;5032112;28;20392;-52
2022/11/22 06:53:27;;;;;;;8.88;4.25;;;;;;;;;;5032695;28;20026;-49
2022/11/22 06:55:59;;;;;;;11.43;4.70;;;;;;;;;;5032414;28;20192;-49
2022/11/22 06:58:26;;;;;;;8.65;3.75;;;;;;;;;;5032705;28;20029;-50
2022/11/22 07:00:53;;;;;;;6.95;3.65;;;;;;;;;;5032700;28;20026;-54
2022/11/22 07:03:20;;;;;;;7.82;3.50;;;;;;;;;;5032599;28;20017;-48
2022/11/22 07:05:50;;;;;;;7.90;3.65;;;;;;;;;;5032488;28;20040;-53
2022/11/22 07:08:17;;;;;;;11.15;4.60;;;;;;;;;;5032481;28;20054;-52
2022/11/22 07:10:44;;;;;;;10.45;4.00;;;;;;;;;;5032570;28;20018;-56
2022/11/22 07:13:11;;;;;;;9.85;4.20;;;;;;;;;;5032646;28;20022;-53
2022/11/22 07:15:38;;;;;;;7.93;4.15;;;;;;;;;;5032349;28;20034;-50
2022/11/22 07:18:05;;;;;;;8.65;4.10;;;;;;;;;;5032428;28;20112;-53
2022/11/22 07:20:32;;;;;;;7.63;3.45;;;;;;;;;;5032591;28;20030;-52
2022/11/22 07:22:59;;;;;;;6.75;3.90;;;;;;;;;;5032440;28;20032;-52
2022/11/22 07:25:26;;;;;;;8.57;3.80;;;;;;;;;;5032358;28;20018;-52
2022/11/22 07:27:53;;;;;;;7.97;4.00;;;;;;;;;;5032442;28;20026;-49
2022/11/22 07:30:20;;;;;;;11.52;4.03;;;;;;;;;;5032455;28;20041;-52
2022/11/22 07:32:47;;;;;;;9.65;3.85;;;;;;;;;;5032357;28;20387;-54
2022/11/22 07:35:14;;;;;;;6.60;3.53;;;;;;;;;;5032133;28;20047;-51
2022/11/22 07:37:41;;;;;;;8.32;3.67;;;;;;;;;;5032369;28;20024;-50
2022/11/22 07:40:08;;;;;;;7.68;3.45;;;;;;;;;;5032367;28;20053;-52
2022/11/22 07:42:35;;;;;;;6.47;3.13;;;;;;;;;;5032356;28;20053;-51
2022/11/22 07:45:02;;;;;;;7.50;3.40;;;;;;;;;;5032352;28;20093;-52
2022/11/22 07:47:29;;;;;;;7.38;3.33;;;;;;;;;;5032072;28;20105;-51
2022/11/22 07:49:56;;;;;;;7.80;3.47;;;;;;;;;;5032260;28;20495;-51
2022/11/22 07:52:23;;;;;;;6.68;3.58;;;;;;;;;;5032291;28;20032;-53
2022/11/22 07:54:50;;;;;;;5.60;3.10;;;;;;;;;;5032262;28;20388;-51
2022/11/22 07:57:17;;;;;;;7.85;3.50;;;;;;;;;;5047323;28;20033;-53
2022/11/22 07:59:44;;;;;;;8.57;3.47;;;;;;;;;;5032230;28;20041;-50
2022/11/22 08:02:14;;;;;;;7.28;3.20;;;;;;;;;;5033665;28;20029;-49
2022/11/22 08:04:41;;;;;;;6.65;3.25;;;;;;;;;;5035748;28;20109;-52
2022/11/22 08:07:08;;;;;;;6.80;3.55;;;;;;;;;;5035580;28;20391;-48
2022/11/22 08:09:35;;;;;;;6.38;3.17;;;;;;;;;;5035682;28;20053;-50
2022/11/22 08:12:03;;;;;;;6.28;3.13;;;;;;;;;;5035494;28;20108;-51
2022/11/22 08:14:30;;;;;;;7.07;3.05;;;;;;;;;;5035564;28;20029;-52
2022/11/22 08:16:57;;;;;;;7.20;3.22;;;;;;;;;;5035456;28;20029;-53
2022/11/22 08:19:24;;;;;;;6.45;3.00;;;;;;;;;;5035564;28;20047;-51
2022/11/22 08:21:51;;;;;;;5.93;2.95;;;;;;;;;;5023106;28;20479;-49
2022/11/22 08:24:18;;;;;;;6.45;3.00;;;;;;;;;;5015583;28;20018;-50
2022/11/22 08:26:45;;;;;;;5.63;2.88;;;;;;;;;;5015470;28;20090;-49
2022/11/22 08:29:12;;;;;;;6.50;2.95;;;;;;;;;;5015642;28;20026;-49
2022/11/22 08:31:40;;;;;;;6.82;3.22;;;;;;;;;;5015614;28;20097;-51
2022/11/22 08:34:07;;;;;;;4.97;3.00;;;;;;;;;;5015506;28;20022;-48
2022/11/22 08:36:33;;;;;;;6.28;2.95;;;;;;;;;;5015318;28;20026;-52
2022/11/22 08:39:00;;;;;;;5.38;2.80;;;;;;;;;;5015446;28;20021;-52
2022/11/22 08:41:27;;;;;;;6.93;2.80;;;;;;;;;;5030528;28;20369;-54
2022/11/22 08:43:54;;;;;;;5.20;2.92;;;;;;;;;;5015379;28;20116;-55
2022/11/22 08:46:21;;;;;;;5.50;2.70;;;;;;;;;;5015181;28;20025;-52
2022/11/22 08:48:48;;;;;;;7.45;3.08;;;;;;;;;;5015175;28;20022;-54
2022/11/22 08:51:15;;;;;;;6.13;2.47;;;;;;;;;;5015172;28;20025;-51
2022/11/22 08:53:43;;;;;;;5.95;2.65;;;;;;;;;;5015128;28;20388;-56
2022/11/22 08:56:14;;;;;;;4.45;2.83;;;;;;;;;;5014910;28;20091;-55
2022/11/22 08:58:41;;;;;;;5.00;2.80;;;;;;;;;;5015109;28;20151;-54
2022/11/22 09:01:08;;;;;;;4.63;2.55;;;;;;;;;;5014739;28;20273;-51
2022/11/22 09:03:35;;;;;;;5.93;2.70;;;;;;;;;;5014990;28;20029;-48
2022/11/22 09:06:03;;;;;;;5.35;2.80;;;;;;;;;;5014869;28;20026;-49
2022/11/22 09:08:34;;;;;;;4.90;2.55;;;;;;;;;;5014443;28;20128;-50
2022/11/22 09:11:01;;;;;;;5.43;2.55;;;;;;;;;;5014740;28;20029;-51
2022/11/22 09:13:29;;;;;;;7.07;3.20;;;;;;;;;;5014141;28;20155;-55
2022/11/22 09:16:01;;;;;;;5.05;2.38;;;;;;;;;;5014859;28;20064;-52
2022/11/22 09:18:28;;;;;;;4.68;2.35;;;;;;;;;;5014684;28;20090;-51
2022/11/22 09:20:59;;;;;;;5.50;2.45;;;;;;;;;;5014595;28;20030;-54
2022/11/22 09:23:26;;;;;;;5.32;2.50;;;;;;;;;;5014611;28;20054;-53
2022/11/22 09:26:06;;;;;;;4.22;2.58;;;;;;;;;;5014417;28;20034;-52
2022/11/22 09:28:34;;;;;;;4.88;2.13;;;;;;;;;;5014476;28;20058;-52
2022/11/22 09:31:00;;;;;;;4.88;2.20;;;;;;;;;;5014391;28;20026;-51
2022/11/22 09:33:28;;;;;;;6.43;2.50;;;;;;;;;;5014432;28;20022;-53
2022/11/22 09:36:01;;;;;;;4.03;2.65;;;;;;;;;;5029321;28;20044;-48
2022/11/22 09:38:28;;;;;;;4.10;2.30;;;;;;;;;;5014321;28;20033;-53
2022/11/22 09:40:55;;;;;;;6.18;2.42;;;;;;;;;;5014193;28;20041;-53
2022/11/22 09:43:31;;;;;;;4.72;2.40;;;;;;;;;;5029359;28;20026;-52
2022/11/22 09:46:07;;;;;;;4.55;2.30;;;;;;;;;;5014277;28;20441;-52
2022/11/22 09:48:56;;;;;;;5.43;2.15;;;;;;;;;;5014154;28;20032;-52
2022/11/22 09:51:26;;;;;;;3.80;2.17;;;;;;;;;;5014033;28;20072;-52
2022/11/22 09:53:56;;;;;;;4.05;2.10;;;;;;;;;;5014066;28;20096;-50
2022/11/22 09:56:25;;;;;;;5.43;2.55;;;;;;;;;;5013420;28;20061;-51
2022/11/22 09:58:54;;;;;;;3.72;2.08;;;;;;;;;;5013989;28;20065;-52
2022/11/22 10:01:24;;;;;;;4.53;2.00;;;;;;;;;;5012664;28;20038;-51
2022/11/22 10:04:07;;;;;;;5.35;2.58;;;;;;;;;;5013913;28;20044;-54
2022/11/22 10:06:40;;;;;;;5.25;2.30;;;;;;;;;;5013572;28;20037;-55
2022/11/22 10:09:07;;;;;;;3.72;1.90;;;;;;;;;;5013410;28;20054;-51
2022/11/22 10:11:34;;;;;;;4.93;2.15;;;;;;;;;;5013063;28;20025;-52
2022/11/22 10:14:03;;;;;;;4.10;2.20;;;;;;;;;;5013316;28;20030;-53
2022/11/22 10:16:30;;;;;;;4.22;2.30;;;;;;;;;;5013356;28;20109;-52
2022/11/22 10:19:00;;;;;;;3.72;2.00;;;;;;;;;;5013450;28;20030;-51
2022/11/22 10:21:30;;;;;;;4.60;1.75;;;;;;;;;;5013350;28;20128;-55
2022/11/22 10:23:57;;;;;;;4.75;2.30;;;;;;;;;;5013371;28;20057;-55
2022/11/22 10:26:25;;;;;;;3.65;1.80;;;;;;;;;;5012316;28;20475;-55
2022/11/22 10:29:01;;;;;;;5.10;2.08;;;;;;;;;;5013258;28;20038;-54
2022/11/22 10:31:51;;;;;;;4.50;2.10;;;;;;;;;;5009938;28;20477;-52
2022/11/22 10:34:24;;;;;;;4.28;1.88;;;;;;;;;;5004950;28;20053;-56
2022/11/22 10:36:51;;;;;;;5.13;1.98;;;;;;;;;;5012768;28;20034;-55
2022/11/22 10:39:21;;;;;;;3.85;2.05;;;;;;;;;;5013137;28;20033;-54
2022/11/22 10:42:00;;;;;;;3.30;1.83;;;;;;;;;;5028273;28;20034;-51
2022/11/22 10:44:30;;;;;;;3.47;1.80;;;;;;;;;;5012772;28;20044;-54
2022/11/22 10:47:09;;;;;;;3.42;1.90;;;;;;;;;;5012995;28;20048;-52
2022/11/22 10:49:45;;;;;;;3.70;1.65;;;;;;;;;;5012953;28;20021;-52
2022/11/22 10:52:12;;;;;;;5.07;1.70;;;;;;;;;;5012439;28;20424;-55
2022/11/22 10:54:42;;;;;;;5.07;1.88;;;;;;;;;;5012484;28;20041;-55
2022/11/22 10:57:28;;;;;;;4.03;1.98;;;;;;;;;;5011968;28;20025;-54
2022/11/22 11:00:13;;;;;;;4.55;2.10;;;;;;;;;;5010155;28;20018;-55
2022/11/22 11:02:46;;;;;;;4.32;2.03;;;;;;;;;;5000041;28;20075;-54
2022/11/22 11:05:16;;;;;;;3.55;1.65;;;;;;;;;;5012197;28;20526;-55
2022/11/22 11:07:46;;;;;;;3.03;1.67;;;;;;;;;;5012218;28;20030;-54
2022/11/22 11:10:17;;;;;;;4.90;1.88;;;;;;;;;;5011907;28;20139;-57
2022/11/22 11:12:44;;;;;;;3.30;1.70;;;;;;;;;;5012361;28;20029;-56
2022/11/22 11:15:29;;;;;;;3.30;1.65;;;;;;;;;;5011247;28;20034;-55
2022/11/22 11:17:59;;;;;;;4.97;1.95;;;;;;;;;;4993084;28;20404;-54
2022/11/22 11:20:27;;;;;;;4.85;1.60;;;;;;;;;;4992909;28;20019;-54
2022/11/22 11:22:54;;;;;;;6.28;1.85;;;;;;;;;;4993093;28;20042;-54
2022/11/22 11:25:32;;;;;;;3.75;1.60;;;;;;;;;;4992776;28;20027;-55
2022/11/22 11:28:05;;;;;;;2.45;1.67;;;;;;;;;;4992969;28;20072;-54
2022/11/22 11:30:46;;;;;;;3.85;1.88;;;;;;;;;;4992903;28;20029;-57
2022/11/22 11:33:19;;;;;;;3.58;1.77;;;;;;;;;;4993088;28;20026;-54
2022/11/22 11:35:46;;;;;;;6.13;1.70;;;;;;;;;;4992611;28;20030;-57
2022/11/22 11:38:31;;;;;;;6.13;1.80;;;;;;;;;;4996163;28;20361;-55
2022/11/22 11:40:58;;;;;;;4.57;2.00;;;;;;;;;;4996627;28;20089;-53
2022/11/22 11:43:25;;;;;;;3.78;1.90;;;;;;;;;;4996668;28;20023;-53
2022/11/22 11:45:52;;;;;;;3.05;1.42;;;;;;;;;;4996606;28;20050;-52
2022/11/22 11:48:30;;;;;;;3.72;1.70;;;;;;;;;;5011746;28;20033;-52
2022/11/22 11:51:06;;;;;;;3.47;1.70;;;;;;;;;;5016525;28;20022;-55
2022/11/22 11:53:34;;;;;;;4.20;1.65;;;;;;;;;;5015635;28;20105;-56
2022/11/22 11:56:21;;;;;;;3.72;1.80;;;;;;;;;;5015392;28;20030;-55
2022/11/22 11:58:52;;;;;;;2.25;1.50;;;;;;;;;;5013302;28;20026;-51
2022/11/22 12:01:19;;;;;;;3.42;1.70;;;;;;;;;;5015302;28;20061;-56
2022/11/22 12:03:57;;;;;;;3.70;1.60;;;;;;;;;;5012910;28;20025;-52
2022/11/22 12:06:28;;;;;;;2.75;1.50;;;;;;;;;;5012609;28;20033;-52
2022/11/22 12:08:56;;;;;;;4.32;1.33;;;;;;;;;;5015393;28;20160;-56
2022/11/22 12:11:32;;;;;;;2.30;1.33;;;;;;;;;;5015658;28;20022;-54
2022/11/22 12:14:00;;;;;;;2.75;1.52;;;;;;;;;;5015415;28;20029;-54
2022/11/22 12:16:32;;;;;;;5.38;1.40;;;;;;;;;;5015572;28;20032;-56
2022/11/22 12:19:11;;;;;;;4.68;1.60;;;;;;;;;;5015597;28;20040;-55
2022/11/22 12:21:56;;;;;;;10.00;1.92;;;;;;;;;;5015462;28;20021;-52
2022/11/22 12:24:38;;;;;;;13.48;1.90;;;;;;;;;;5015519;28;20068;-48
2022/11/22 12:27:05;;;;;;;20.90;2.53;;;;;;;;;;5015470;28;20480;-48
2022/11/22 12:29:34;;;;;;;16.80;2.28;;;;;;;;;;5015635;28;20030;-49
2022/11/22 12:32:22;;;;;;;24.42;2.42;;;;;;;;;;5014614;28;20049;-51
2022/11/22 12:34:49;;;;;;;15.10;2.92;;;;;;;;;;4988958;28;20101;-54
2022/11/22 12:37:38;;;;;;;23.88;2.33;;;;;;;;;;5000741;28;20553;-49
2022/11/22 12:40:29;;;;;;;21.30;2.83;;;;;;;;;;5009826;28;20151;-50
2022/11/22 12:43:00;;;;;;;10.10;2.47;;;;;;;;;;5015226;28;20058;-49
2022/11/22 12:45:32;;;;;;;19.80;2.17;;;;;;;;;;5014662;28;20137;-51
2022/11/22 12:48:05;;;;;;;12.32;2.90;;;;;;;;;;5014139;28;20028;-47
2022/11/22 12:50:58;;;;;;;10.73;2.70;;;;;;;;;;5014870;28;20053;-47
2022/11/22 12:53:30;;;;;;;13.70;2.42;;;;;;;;;;4992115;28;20137;-48
2022/11/22 12:56:06;;;;;;;23.10;3.22;;;;;;;;;;5030095;28;20423;-52
2022/11/22 12:58:37;;;;;;;18.35;2.40;;;;;;;;;;5013953;28;20084;-48
2022/11/22 13:01:10;;;;;;;13.00;2.42;;;;;;;;;;5011705;28;20068;-49
2022/11/22 13:03:56;;;;;;;16.95;3.10;;;;;;;;;;5014728;28;20029;-48
2022/11/22 13:06:25;;;;;;;21.45;3.25;;;;;;;;;;5014608;28;20030;-49
2022/11/22 13:09:05;;;;;;;24.33;2.83;;;;;;;;;;5014240;28;20092;-57
2022/11/22 13:11:41;;;;;;;16.52;3.03;;;;;;;;;;5014569;28;20026;-52
2022/11/22 13:14:12;;;;;;;27.60;3.10;;;;;;;;;;5014538;28;20519;-50
2022/11/22 13:16:39;;;;;;;26.50;2.83;;;;;;;;;;5013810;28;20534;-50
2022/11/22 13:19:07;;;;;;;21.33;2.80;;;;;;;;;;5013940;28;20071;-55
2022/11/22 13:21:52;;;;;;;21.98;3.15;;;;;;;;;;5013834;28;20361;-51
2022/11/22 13:24:26;;;;;;;22.98;3.47;;;;;;;;;;5009952;28;20025;-57
2022/11/22 13:26:59;;;;;;;27.67;2.67;;;;;;;;;;5012271;28;20034;-52
2022/11/22 13:29:28;;;;;;;18.50;2.85;;;;;;;;;;5014090;28;20030;-55
2022/11/22 13:32:01;;;;;;;18.05;2.90;;;;;;;;;;5011763;28;20044;-47
2022/11/22 13:34:28;;;;;;;17.20;2.83;;;;;;;;;;5013538;28;20036;-55
2022/11/22 13:36:55;;;;;;;27.42;3.20;;;;;;;;;;5011368;28;20435;-57
2022/11/22 13:39:24;;;;;;;24.48;3.65;;;;;;;;;;5014149;28;20052;-50
2022/11/22 13:41:53;;;;;;;29.83;2.97;;;;;;;;;;5013445;28;20535;-53
2022/11/22 13:44:23;;;;;;;23.40;3.10;;;;;;;;;;5012598;28;20437;-51
2022/11/22 13:46:50;;;;;;;17.25;2.80;;;;;;;;;;5013951;28;20030;-55
2022/11/22 13:49:34;;;;;;;18.35;2.72;;;;;;;;;;5013312;28;20427;-54
2022/11/22 13:52:04;;;;;;;24.25;2.88;;;;;;;;;;4994431;28;20054;-54
2022/11/22 13:54:36;;;;;;;27.70;3.10;;;;;;;;;;5005050;28;20040;-53
2022/11/22 13:57:22;;;;;;;16.75;2.42;;;;;;;;;;5013451;28;20037;-57
2022/11/22 14:00:08;;;;;;;31.95;3.38;;;;;;;;;;5011470;28;20018;-54
2022/11/22 14:02:35;;;;;;;16.88;2.80;;;;;;;;;;5012689;28;20092;-54
2022/11/22 14:05:02;;;;;;;16.92;2.55;;;;;;;;;;5014739;28;20044;-55
2022/11/22 14:07:34;;;;;;;25.02;2.80;;;;;;;;;;5020912;28;20033;-55
2022/11/22 14:10:02;;;;;;;17.38;2.97;;;;;;;;;;5019072;28;20030;-55
2022/11/22 14:12:29;;;;;;;19.15;3.08;;;;;;;;;;5021357;28;20038;-56
2022/11/22 14:15:11;;;;;;;19.02;3.13;;;;;;;;;;5022897;28;20017;-54
2022/11/22 14:17:38;;;;;;;;;;;;;;;;;;5023215;28;20682;-52
2022/11/22 14:20:20;;;;;;;19.73;2.80;;;;;;;;;;5021660;28;19964;-57
2022/11/22 14:23:10;;;;;;;17.60;2.80;;;;;;;;;;5020388;28;20026;-56
2022/11/22 14:25:37;;;;;;;16.00;2.92;;;;;;;;;;5022102;28;20087;-56
2022/11/22 14:28:06;;;;;;;22.98;3.67;;;;;;;;;;5021346;28;20104;-57
2022/11/22 14:30:59;;;;;;;17.17;3.53;;;;;;;;;;5020927;28;20029;-55
2022/11/22 14:33:28;;;;;;;35.10;4.25;;;;;;;;;;5017195;28;20082;-53
2022/11/22 14:36:04;;;;;;;28.50;4.72;;;;;;;;;;5020243;28;20128;-52
2022/11/22 14:38:34;;;;;;;26.73;4.93;;;;;;;;;;5020974;28;20053;-50
2022/11/22 14:41:33;;;;;;;31.40;4.20;;;;;;;;;;5018252;28;20075;-49
2022/11/22 14:44:18;;;;;;;44.55;5.25;;;;;;;;;;4994298;28;20042;-51
2022/11/22 14:46:45;;;;;;;30.17;4.70;;;;;;;;;;5010473;28;20065;-52
2022/11/22 14:49:27;;;;;;;28.05;4.30;;;;;;;;;;5031668;28;20021;-55
2022/11/22 14:51:55;;;;;;;38.95;4.60;;;;;;;;;;5032352;28;20140;-54
2022/11/22 14:54:28;;;;;;;26.23;4.07;;;;;;;;;;5032799;28;20517;-49
2022/11/22 14:56:54;;;;;;;;;;;;;;;;;;5033020;28;20060;-52
2022/11/22 14:59:51;;;;;;;27.52;4.32;;;;;;;;;;5032452;28;19909;-51
2022/11/22 15:02:24;;;;;;;35.78;4.78;;;;;;;;;;5032515;28;20029;-53
2022/11/22 15:05:07;;;;;;;25.40;4.32;;;;;;;;;;5032597;28;20518;-53